Time;durP1;ratioP1;P1;durP2;ratioP2;P2;SDS_P1;SDS_P2;PMS_P1;PMS_P2;Temp;Humidity;BMP_temperature;BMP_pressure;BME280_temperature;BME280_humidity;BME280_pressure;Samples;Min_cycle;Max_cycle;Signal;HPM_P1;HPM_P2
2023/09/23 00:00:47;;;;;;;1.02;0.93;;;12.40;89.10;;;13.95;59.76;97166.31;5019515;28;20041;-66
2023/09/23 00:03:16;;;;;;;1.85;0.98;;;12.40;86.70;;;14.06;59.82;97171.13;5022342;28;20045;-65
2023/09/23 00:05:44;;;;;;;1.00;0.75;;;12.50;88.20;;;14.14;59.63;97176.31;5021324;28;20037;-65
2023/09/23 00:08:12;;;;;;;2.22;0.77;;;12.60;87.80;;;14.20;59.59;97172.03;5001710;28;20047;-66
2023/09/23 00:10:40;;;;;;;0.75;0.75;;;12.60;87.40;;;14.26;59.33;97181.16;5001650;28;20046;-66
2023/09/23 00:13:08;;;;;;;0.90;0.90;;;12.60;86.80;;;14.28;59.34;97179.09;5022582;28;20046;-65
2023/09/23 00:15:40;;;;;;;1.00;0.90;;;12.50;87.60;;;14.29;59.28;97183.44;5012100;28;20068;-66
2023/09/23 00:18:09;;;;;;;1.10;0.88;;;12.50;88.30;;;14.28;59.24;97187.13;4993876;28;20049;-66
2023/09/23 00:20:38;;;;;;;0.60;0.60;;;12.50;88.10;;;14.27;59.06;97182.78;5019033;28;20041;-66
2023/09/23 00:23:05;;;;;;;1.35;1.05;;;12.50;87.70;;;14.28;58.99;97184.47;5019593;28;20052;-65
2023/09/23 00:25:34;;;;;;;2.58;0.80;;;12.40;87.90;;;14.29;58.95;97194.97;5022110;28;20041;-66
2023/09/23 00:28:02;;;;;;;1.02;0.90;;;12.40;87.70;;;14.30;58.86;97183.22;5019561;28;20054;-65
2023/09/23 00:30:32;;;;;;;0.85;0.80;;;12.40;87.70;;;14.26;58.83;97187.31;5019229;28;20048;-66
2023/09/23 00:33:00;;;;;;;0.55;0.52;;;12.40;88.20;;;14.26;58.96;97197.22;5003732;28;20054;-65
2023/09/23 00:35:28;;;;;;;1.40;0.80;;;12.40;87.30;;;14.21;58.74;97188.94;5011625;28;20419;-65
2023/09/23 00:37:55;;;;;;;1.58;0.85;;;12.30;88.20;;;14.18;58.75;97185.63;4986993;28;20057;-65
2023/09/23 00:40:32;;;;;;;0.70;0.70;;;12.30;87.50;;;14.14;58.77;97189.72;5003618;28;20484;-65
2023/09/23 00:43:16;;;;;;;1.00;0.70;;;12.30;87.90;;;14.08;58.82;97187.00;5002581;28;20046;-66
2023/09/23 00:45:49;;;;;;;0.80;0.80;;;12.20;87.50;;;14.11;58.68;97192.78;5021114;28;20492;-65
2023/09/23 00:48:20;;;;;;;0.88;0.60;;;12.20;89.10;;;14.13;58.96;97195.25;5019081;28;20412;-65
2023/09/23 00:50:51;;;;;;;0.98;0.80;;;12.20;88.10;;;14.10;58.82;97201.84;5001654;28;20054;-65
2023/09/23 00:53:20;;;;;;;0.85;0.85;;;12.20;87.60;;;14.04;58.74;97199.94;5005331;28;20151;-65
2023/09/23 00:55:52;;;;;;;1.40;0.85;;;12.20;87.50;;;14.04;58.89;97188.41;5003972;28;20042;-65
2023/09/23 00:58:22;;;;;;;1.05;0.80;;;12.20;88.30;;;13.98;58.83;97185.47;5018604;28;20069;-65
2023/09/23 01:00:50;;;;;;;1.58;1.08;;;12.20;87.60;;;14.03;58.92;97176.84;4990459;28;20057;-65
2023/09/23 01:03:19;;;;;;;0.70;0.70;;;12.20;87.60;;;14.08;59.02;97187.81;5021583;28;20321;-65
2023/09/23 01:05:58;;;;;;;2.42;0.73;;;12.30;88.20;;;14.06;58.95;97191.72;5003617;28;20050;-65
2023/09/23 01:08:26;;;;;;;1.38;0.85;;;12.30;87.80;;;14.06;59.08;97189.88;4982567;28;20046;-66
2023/09/23 01:10:54;;;;;;;3.20;1.10;;;12.30;88.00;;;14.04;58.93;97188.41;5013996;28;20050;-65
2023/09/23 01:13:29;;;;;;;2.65;1.02;;;12.30;88.50;;;13.96;59.03;97197.41;4988262;28;20107;-65
2023/09/23 01:15:57;;;;;;;1.75;0.70;;;12.20;88.40;;;14.01;59.16;97186.94;5018611;28;20057;-65
2023/09/23 01:18:28;;;;;;;1.60;0.85;;;12.20;88.50;;;14.03;58.96;97192.91;5002608;28;20045;-65
2023/09/23 01:21:00;;;;;;;1.15;0.90;;;12.20;88.20;;;13.95;59.34;97185.84;5019570;28;20034;-65
2023/09/23 01:23:28;;;;;;;1.35;0.80;;;12.20;89.00;;;13.96;59.36;97184.84;5003936;28;20048;-66
2023/09/23 01:25:57;;;;;;;2.25;0.70;;;12.20;88.10;;;13.88;59.19;97179.66;5017921;28;20065;-65
2023/09/23 01:28:24;;;;;;;0.90;0.90;;;12.10;88.80;;;13.90;59.21;97184.78;5004164;28;20041;-65
2023/09/23 01:30:52;;;;;;;1.17;0.88;;;12.10;88.40;;;13.91;59.18;97194.47;5002852;28;20053;-65
2023/09/23 01:33:20;;;;;;;1.02;0.75;;;12.10;87.90;;;13.86;59.27;97207.59;5017635;28;20481;-65
2023/09/23 01:35:48;;;;;;;0.70;0.70;;;12.10;88.70;;;13.84;59.19;97210.50;5004811;28;20046;-65
2023/09/23 01:38:16;;;;;;;0.98;0.80;;;12.20;88.00;;;13.90;58.99;97214.22;5011598;28;20049;-65
2023/09/23 01:40:44;;;;;;;0.65;0.65;;;12.20;87.70;;;13.94;59.03;97218.19;5021527;28;20037;-65
2023/09/23 01:43:12;;;;;;;3.33;1.02;;;12.20;87.10;;;13.91;59.03;97223.91;5018193;28;20517;-65
2023/09/23 01:45:40;;;;;;;0.90;0.70;;;12.20;87.40;;;13.88;59.13;97210.91;5017622;28;20042;-65
2023/09/23 01:48:08;;;;;;;1.83;0.90;;;12.10;87.00;;;13.87;59.03;97222.66;5008152;28;20045;-65
2023/09/23 01:50:36;;;;;;;1.02;0.80;;;12.10;86.40;;;13.83;59.08;97216.03;5018356;28;20046;-65
2023/09/23 01:53:04;;;;;;;1.38;0.90;;;12.10;86.70;;;13.76;59.14;97221.28;4991309;28;20053;-64
2023/09/23 01:55:31;;;;;;;0.77;0.77;;;12.00;86.90;;;13.81;59.03;97234.94;4999299;28;20033;-65
2023/09/23 01:58:01;;;;;;;0.88;0.80;;;12.00;87.00;;;13.77;58.96;97236.34;4986421;28;20049;-65
2023/09/23 02:00:29;;;;;;;0.80;0.80;;;12.00;86.80;;;13.74;58.81;97232.19;5014114;28;20045;-65
2023/09/23 02:02:57;;;;;;;0.73;0.68;;;12.00;86.70;;;13.72;58.83;97230.72;4989193;28;20049;-64
2023/09/23 02:05:27;;;;;;;0.80;0.80;;;12.00;86.80;;;13.71;58.83;97227.22;5020298;28;20473;-64
2023/09/23 02:07:55;;;;;;;1.40;0.73;;;12.00;86.30;;;13.66;58.88;97224.28;5003630;28;20257;-64
2023/09/23 02:10:26;;;;;;;1.35;0.93;;;11.90;87.10;;;13.69;58.90;97226.59;5024256;28;20412;-65
2023/09/23 02:12:55;;;;;;;0.75;0.75;;;11.90;86.70;;;13.67;58.88;97227.81;5007275;28;20037;-64
2023/09/23 02:15:23;;;;;;;1.55;0.85;;;11.90;87.20;;;13.70;58.55;97224.75;5004234;28;20053;-64
2023/09/23 02:17:51;;;;;;;2.60;1.02;;;11.90;87.10;;;13.65;58.74;97241.38;4995929;28;20042;-64
2023/09/23 02:20:20;;;;;;;0.77;0.57;;;11.90;87.10;;;13.69;58.75;97250.69;4996453;28;20225;-64
2023/09/23 02:22:53;;;;;;;1.42;0.80;;;11.90;87.10;;;13.64;58.63;97246.91;4992012;28;20042;-64
2023/09/23 02:25:25;;;;;;;1.95;0.75;;;11.90;86.60;;;13.58;58.64;97252.00;4995564;28;20042;-65
2023/09/23 02:27:55;;;;;;;1.67;1.00;;;11.80;87.40;;;13.58;58.61;97251.16;5003717;28;20041;-65
2023/09/23 02:30:23;;;;;;;1.58;1.02;;;11.80;87.30;;;13.52;58.79;97242.06;5007621;28;20048;-64
2023/09/23 02:32:51;;;;;;;1.42;0.98;;;11.70;87.00;;;13.57;58.59;97250.34;4991019;28;20041;-64
2023/09/23 02:35:20;;;;;;;2.90;1.00;;;11.70;87.60;;;13.57;58.65;97250.34;5011393;28;20055;-65
2023/09/23 02:37:48;;;;;;;1.42;0.90;;;11.70;87.20;;;13.59;58.52;97252.84;5019785;28;20126;-64
2023/09/23 02:40:17;;;;;;;0.85;0.80;;;11.70;88.50;;;13.56;58.70;97250.53;5014113;28;20048;-64
2023/09/23 02:42:47;;;;;;;1.17;0.80;;;11.80;87.20;;;13.55;58.60;97251.53;5007273;28;20064;-64
2023/09/23 02:45:20;;;;;;;0.85;0.80;;;11.80;86.80;;;13.53;58.62;97259.78;5003798;28;20075;-65
2023/09/23 02:47:48;;;;;;;0.57;0.57;;;11.70;87.00;;;13.52;58.67;97265.31;5007456;28;20041;-64
2023/09/23 02:50:17;;;;;;;3.42;0.98;;;11.70;87.00;;;13.50;58.63;97270.00;5013975;28;20535;-65
2023/09/23 02:52:46;;;;;;;2.05;0.80;;;11.70;86.70;;;13.48;58.61;97280.91;5006205;28;20033;-64
2023/09/23 02:55:15;;;;;;;1.52;0.80;;;11.70;87.20;;;13.48;58.68;97278.22;5003259;28;20523;-64
2023/09/23 02:57:48;;;;;;;1.33;0.70;;;11.70;87.00;;;13.46;58.65;97284.78;5006547;28;20425;-64
2023/09/23 03:00:18;;;;;;;1.63;0.73;;;11.70;86.60;;;13.44;58.87;97281.47;4990279;28;20539;-64
2023/09/23 03:02:53;;;;;;;0.95;0.75;;;11.70;86.60;;;13.38;58.80;97288.41;5005908;28;20049;-64
2023/09/23 03:05:28;;;;;;;1.15;0.70;;;11.70;87.00;;;13.37;58.96;97292.06;5003733;28;20144;-64
2023/09/23 03:07:58;;;;;;;0.63;0.63;;;11.70;87.10;;;13.42;58.87;97307.56;5005104;28;20049;-63
2023/09/23 03:10:39;;;;;;;1.13;1.00;;;11.70;86.90;;;13.45;58.87;97304.50;4990277;28;20048;-64
2023/09/23 03:13:11;;;;;;;1.20;1.00;;;11.70;86.40;;;13.46;58.66;97311.53;5006278;28;20038;-64
2023/09/23 03:15:53;;;;;;;1.52;0.88;;;11.80;85.50;;;13.42;58.62;97308.41;5003359;28;20430;-64
2023/09/23 03:18:33;;;;;;;1.55;0.98;;;11.70;86.20;;;13.44;58.54;97308.22;5006218;28;20037;-64
2023/09/23 03:21:10;;;;;;;0.93;0.90;;;11.70;86.50;;;13.46;58.73;97311.53;5004874;28;20053;-64
2023/09/23 03:23:40;;;;;;;1.23;1.08;;;11.80;85.80;;;13.43;58.92;97312.72;4998336;28;20050;-64
2023/09/23 03:26:09;;;;;;;2.65;1.08;;;11.80;85.90;;;13.42;58.58;97312.91;5017683;28;20057;-64
2023/09/23 03:28:39;;;;;;;1.08;0.88;;;11.70;86.50;;;13.36;58.86;97309.97;4989985;28;20072;-64
2023/09/23 03:31:08;;;;;;;1.75;1.00;;;11.70;86.10;;;13.33;58.71;97315.69;5020468;28;20505;-64
2023/09/23 03:33:38;;;;;;;1.83;0.60;;;11.70;86.50;;;13.35;58.80;97320.84;5003082;28;20065;-64
2023/09/23 03:36:14;;;;;;;1.30;0.93;;;11.60;86.10;;;13.32;58.63;97322.06;4986846;28;20505;-64
2023/09/23 03:38:42;;;;;;;1.05;0.80;;;11.60;86.50;;;13.31;58.67;97323.06;4990023;28;20049;-64
2023/09/23 03:41:11;;;;;;;0.93;0.70;;;11.60;86.30;;;13.30;58.76;97323.22;5021761;28;20432;-64
2023/09/23 03:43:40;;;;;;;0.75;0.65;;;11.60;87.60;;;13.34;58.67;97325.38;5007475;28;20052;-64
2023/09/23 03:46:16;;;;;;;1.77;0.80;;;11.60;85.80;;;13.22;58.96;97329.47;5021913;28;20049;-64
2023/09/23 03:48:44;;;;;;;1.67;0.93;;;11.50;86.80;;;13.25;58.85;97330.97;5004757;28;20505;-65
2023/09/23 03:51:14;;;;;;;2.20;0.90;;;11.50;87.10;;;13.24;58.89;97331.97;4988175;28;20536;-64
2023/09/23 03:53:45;;;;;;;1.38;0.80;;;11.40;87.10;;;13.23;58.79;97341.03;4989723;28;20049;-64
2023/09/23 03:56:13;;;;;;;2.38;1.17;;;11.40;87.80;;;13.15;59.05;97337.41;5003813;28;20440;-64
2023/09/23 03:58:41;;;;;;;1.33;1.13;;;11.30;88.60;;;13.13;59.17;97343.97;5003875;28;20516;-63
2023/09/23 04:01:11;;;;;;;2.17;0.77;;;11.20;89.20;;;13.12;59.08;97344.97;5002339;28;20060;-64
2023/09/23 04:03:40;;;;;;;1.50;1.05;;;11.20;89.60;;;13.10;59.13;97347.00;4989705;28;20505;-64
2023/09/23 04:06:08;;;;;;;2.43;1.00;;;11.20;90.00;;;13.10;59.13;97347.81;5004504;28;20518;-64
2023/09/23 04:08:35;;;;;;;3.00;2.03;;;11.10;89.70;;;13.10;59.09;97349.69;5002419;28;20049;-63
2023/09/23 04:11:05;;;;;;;2.72;1.15;;;11.20;90.10;;;13.10;58.98;97347.81;5006316;28;20054;-63
2023/09/23 04:13:33;;;;;;;1.70;0.98;;;11.20;89.60;;;13.12;59.21;97353.81;5005536;28;20420;-63
2023/09/23 04:16:01;;;;;;;1.75;1.00;;;11.20;89.30;;;13.06;59.05;97349.22;5022775;28;20461;-64
2023/09/23 04:18:31;;;;;;;1.85;1.20;;;11.10;90.00;;;13.03;58.96;97346.06;4993844;28;20046;-63
2023/09/23 04:21:01;;;;;;;1.55;1.08;;;11.10;89.80;;;12.95;59.17;97353.19;5018524;28;20045;-64
2023/09/23 04:23:29;;;;;;;3.13;1.20;;;11.00;90.40;;;12.88;59.11;97357.59;5019125;28;20038;-64
2023/09/23 04:25:57;;;;;;;2.17;1.10;;;10.90;91.20;;;12.82;59.62;97352.16;5001764;28;20049;-65
2023/09/23 04:28:25;;;;;;;1.33;0.90;;;10.80;91.20;;;12.78;59.83;97362.38;5004039;28;20034;-65
2023/09/23 04:30:54;;;;;;;1.23;0.93;;;10.80;91.50;;;12.73;59.56;97360.22;5005242;28;20041;-65
2023/09/23 04:33:24;;;;;;;1.10;1.00;;;10.70;91.90;;;12.72;59.70;97355.91;5002579;28;20048;-64
2023/09/23 04:35:52;;;;;;;1.20;1.00;;;10.80;92.00;;;12.68;59.75;97357.28;5001570;28;20053;-65
2023/09/23 04:38:20;;;;;;;1.33;1.17;;;10.70;92.10;;;12.68;60.06;97359.97;5021192;28;20053;-65
2023/09/23 04:40:48;;;;;;;0.85;0.85;;;10.70;92.20;;;12.67;60.21;97365.47;5022726;28;20045;-65
2023/09/23 04:43:16;;;;;;;1.30;1.20;;;10.70;92.20;;;12.63;60.30;97361.53;5021251;28;20045;-65
2023/09/23 04:45:44;;;;;;;1.27;1.03;;;10.70;92.50;;;12.60;60.30;97368.03;5018896;28;20030;-65
2023/09/23 04:48:12;;;;;;;0.73;0.73;;;10.70;92.80;;;12.60;60.46;97376.03;5019662;28;20049;-64
2023/09/23 04:50:41;;;;;;;1.63;0.82;;;10.70;93.10;;;12.61;60.38;97386.56;5022699;28;20037;-64
2023/09/23 04:53:09;;;;;;;1.87;0.90;;;10.70;93.40;;;12.60;60.60;97379.56;5022108;28;20049;-64
2023/09/23 04:55:37;;;;;;;1.47;0.80;;;10.70;93.40;;;12.62;60.69;97382.06;5018545;28;20046;-63
2023/09/23 04:58:04;;;;;;;2.13;1.17;;;10.80;93.70;;;12.70;60.69;97383.81;5019102;28;20057;-64
2023/09/23 05:00:36;;;;;;;1.63;1.00;;;10.80;92.80;;;12.72;60.54;97381.81;5001690;28;20042;-64
2023/09/23 05:03:05;;;;;;;3.25;1.30;;;10.90;92.40;;;12.71;60.82;97394.31;4998613;28;20042;-63
2023/09/23 05:05:34;;;;;;;1.00;0.90;;;10.90;92.30;;;12.75;60.52;97392.09;5010914;28;20042;-64
2023/09/23 05:08:09;;;;;;;1.10;0.90;;;10.90;92.20;;;12.74;60.72;97391.28;5019456;28;20045;-63
2023/09/23 05:10:39;;;;;;;1.15;0.95;;;10.90;91.80;;;12.78;60.23;97395.25;5011776;28;20034;-64
2023/09/23 05:13:09;;;;;;;1.53;0.93;;;11.00;91.90;;;12.80;60.82;97403.09;5018972;28;20050;-64
2023/09/23 05:15:37;;;;;;;1.67;0.88;;;11.00;91.40;;;12.75;60.39;97400.94;5004862;28;20046;-64
2023/09/23 05:18:05;;;;;;;1.07;0.97;;;11.00;91.20;;;12.72;60.43;97411.19;5022287;28;20041;-62
2023/09/23 05:20:33;;;;;;;1.07;0.90;;;10.90;91.30;;;12.71;60.53;97404.16;5018900;28;20049;-61
2023/09/23 05:23:05;;;;;;;1.17;0.90;;;10.90;91.60;;;12.70;60.64;97410.53;5022223;28;20037;-61
2023/09/23 05:25:33;;;;;;;1.70;1.17;;;10.80;92.00;;;12.67;60.70;97410.88;5021556;28;20045;-62
2023/09/23 05:28:02;;;;;;;2.40;0.97;;;10.90;91.80;;;12.69;60.70;97415.03;5021777;28;20046;-61
2023/09/23 05:30:30;;;;;;;1.07;0.90;;;10.90;91.90;;;12.72;60.57;97416.53;5019441;28;20501;-60
2023/09/23 05:32:58;;;;;;;1.90;0.90;;;10.90;91.30;;;12.72;60.38;97421.88;5003513;28;20501;-61
2023/09/23 05:35:27;;;;;;;0.80;0.80;;;10.90;91.30;;;12.64;60.76;97421.91;5023680;28;20049;-62
2023/09/23 05:37:55;;;;;;;1.77;1.00;;;10.80;91.90;;;12.68;60.79;97426.75;5008730;28;20072;-62
2023/09/23 05:40:26;;;;;;;1.20;0.80;;;10.90;91.70;;;12.71;60.73;97439.72;4990465;28;20041;-62
2023/09/23 05:42:55;;;;;;;3.80;1.10;;;10.90;91.80;;;12.70;60.62;97435.41;5022435;28;20037;-62
2023/09/23 05:45:24;;;;;;;3.17;1.40;;;10.90;91.60;;;12.76;60.72;97429.34;5023464;28;20049;-63
2023/09/23 05:47:52;;;;;;;3.03;1.10;;;11.00;91.30;;;12.73;60.74;97445.72;5025703;28;20048;-62
2023/09/23 05:50:20;;;;;;;3.53;1.07;;;11.00;91.00;;;12.77;60.50;97446.19;5006827;28;20056;-62
2023/09/23 05:52:49;;;;;;;1.13;0.90;;;11.10;90.90;;;12.84;60.56;97444.47;5022234;28;20456;-62
2023/09/23 05:55:17;;;;;;;1.83;0.90;;;11.10;89.90;;;12.91;60.46;97445.41;5004893;28;20054;-62
2023/09/23 05:57:45;;;;;;;1.10;0.90;;;11.20;89.50;;;12.92;60.41;97457.75;5025890;28;20037;-62
2023/09/23 06:00:15;;;;;;;0.85;0.80;;;11.20;89.20;;;12.94;60.40;97463.72;5025409;28;20412;-62
2023/09/23 06:02:47;;;;;;;1.90;1.33;;;11.20;89.50;;;12.97;60.28;97460.72;5021624;28;20038;-62
2023/09/23 06:05:15;;;;;;;1.00;0.90;;;11.30;89.40;;;13.00;60.14;97471.03;5004483;28;20042;-63
2023/09/23 06:07:43;;;;;;;1.92;0.80;;;11.30;88.90;;;13.03;60.23;97480.53;5025210;28;20037;-64
2023/09/23 06:10:11;;;;;;;1.00;0.80;;;11.30;89.30;;;13.05;60.07;97483.03;5025352;28;20052;-64
2023/09/23 06:12:39;;;;;;;1.17;0.75;;;11.30;88.60;;;13.08;60.07;97482.66;5021713;28;20045;-64
2023/09/23 06:15:08;;;;;;;1.75;0.70;;;11.40;88.60;;;13.12;60.09;97486.63;5021463;28;20057;-64
2023/09/23 06:17:37;;;;;;;1.40;1.00;;;11.40;89.00;;;13.13;60.02;97499.00;5007240;28;20522;-64
2023/09/23 06:20:07;;;;;;;0.90;0.90;;;11.50;88.90;;;13.13;59.71;97501.66;5007850;28;20496;-64
2023/09/23 06:22:35;;;;;;;0.80;0.80;;;11.50;88.50;;;13.18;59.96;97502.78;5004957;28;20440;-65
2023/09/23 06:25:03;;;;;;;1.45;1.00;;;11.60;87.80;;;13.23;59.78;97509.44;5016917;28;20497;-65
2023/09/23 06:27:31;;;;;;;2.92;1.15;;;11.60;87.40;;;13.23;59.70;97514.78;5023744;28;20504;-65
2023/09/23 06:29:59;;;;;;;2.50;1.90;;;11.60;87.20;;;13.28;59.73;97520.38;5025076;28;20044;-64
2023/09/23 06:32:26;;;;;;;2.10;1.05;;;11.60;88.20;;;13.33;59.67;97520.72;5023272;28;20041;-65
2023/09/23 06:34:55;;;;;;;2.03;1.08;;;11.70;87.40;;;13.30;59.65;97521.06;5021107;28;20045;-65
2023/09/23 06:37:23;;;;;;;5.30;1.42;;;11.70;87.10;;;13.33;59.75;97520.72;5022551;28;20058;-65
2023/09/23 06:39:50;;;;;;;1.25;0.90;;;11.70;87.60;;;13.30;59.63;97529.94;5006444;28;20049;-65
2023/09/23 06:42:18;;;;;;;1.10;0.90;;;11.60;87.30;;;13.31;59.81;97530.75;5024169;28;20500;-65
2023/09/23 06:44:46;;;;;;;1.92;1.20;;;11.70;87.60;;;13.36;59.66;97533.72;4986679;28;20042;-65
2023/09/23 06:47:13;;;;;;;2.85;1.00;;;11.80;87.10;;;13.35;59.77;97537.41;5010460;28;20462;-66
2023/09/23 06:49:41;;;;;;;1.08;0.82;;;11.70;86.20;;;13.39;59.79;97536.84;5024045;28;20037;-64
2023/09/23 06:52:09;;;;;;;2.38;0.80;;;11.80;86.70;;;13.40;59.68;97535.03;5006779;28;20037;-65
2023/09/23 06:54:37;;;;;;;1.33;0.95;;;11.80;86.50;;;13.45;59.68;97537.16;5019952;28;20052;-65
2023/09/23 06:57:05;;;;;;;1.42;1.10;;;11.80;86.40;;;13.45;59.34;97540.66;5021154;28;20058;-65
2023/09/23 06:59:33;;;;;;;1.08;0.80;;;11.90;86.60;;;13.49;59.46;97539.28;5022986;28;20046;-65
2023/09/23 07:02:00;;;;;;;1.02;0.85;;;11.90;86.40;;;13.53;59.45;97545.09;5024257;28;20048;-64
2023/09/23 07:04:28;;;;;;;1.20;1.05;;;11.90;86.90;;;13.53;59.71;97542.41;5022451;28;20131;-63
2023/09/23 07:06:56;;;;;;;2.63;1.10;;;12.00;86.80;;;13.54;59.48;97550.25;5020888;28;20046;-62
2023/09/23 07:09:24;;;;;;;0.85;0.80;;;12.00;86.60;;;13.62;59.54;97548.53;5003679;28;20049;-62
2023/09/23 07:11:51;;;;;;;1.00;0.90;;;12.00;86.60;;;13.64;59.57;97549.16;5005864;28;20397;-62
2023/09/23 07:14:19;;;;;;;2.92;0.95;;;12.00;86.60;;;13.65;59.67;97558.84;5005719;28;20037;-63
2023/09/23 07:16:47;;;;;;;1.00;0.90;;;12.00;87.30;;;13.71;59.51;97561.63;5012522;28;20057;-63
2023/09/23 07:19:14;;;;;;;0.77;0.77;;;12.10;87.10;;;13.78;59.50;97567.06;5020662;28;20057;-62
2023/09/23 07:21:42;;;;;;;3.58;1.10;;;12.20;86.80;;;13.82;59.24;97571.03;5023924;28;20045;-63
2023/09/23 07:24:09;;;;;;;1.08;0.98;;;12.20;86.30;;;13.88;59.32;97573.00;5023606;28;20041;-63
2023/09/23 07:26:40;;;;;;;1.15;1.05;;;12.30;86.70;;;13.95;59.20;97578.44;5020940;28;20084;-63
2023/09/23 07:29:08;;;;;;;1.20;1.10;;;12.30;85.70;;;13.99;59.10;97580.53;5020950;28;20409;-63
2023/09/23 07:31:35;;;;;;;0.95;0.70;;;12.40;85.80;;;14.03;59.09;97586.38;5022416;28;20058;-63
2023/09/23 07:34:03;;;;;;;1.95;1.15;;;12.40;85.20;;;14.08;58.96;97586.66;5023601;28;20428;-63
2023/09/23 07:36:31;;;;;;;1.52;0.93;;;12.50;85.30;;;14.14;58.86;97585.09;5022225;28;20045;-63
2023/09/23 07:38:58;;;;;;;0.82;0.75;;;12.60;84.90;;;14.11;58.80;97588.13;5003217;28;20430;-63
2023/09/23 07:41:26;;;;;;;1.77;1.00;;;12.50;84.20;;;14.15;58.77;97590.25;5020944;28;20049;-63
2023/09/23 07:43:54;;;;;;;1.48;1.23;;;12.50;84.70;;;14.12;58.71;97589.78;5022868;28;20042;-63
2023/09/23 07:46:21;;;;;;;1.67;0.77;;;12.60;84.40;;;14.09;58.86;97604.34;5023387;28;20366;-63
2023/09/23 07:48:49;;;;;;;1.52;0.88;;;12.50;84.20;;;14.11;58.96;97602.34;5011143;28;20042;-64
2023/09/23 07:51:17;;;;;;;1.60;0.85;;;12.60;84.90;;;14.16;58.98;97605.28;5020037;28;20042;-63
2023/09/23 07:53:44;;;;;;;1.02;0.90;;;12.60;85.00;;;14.18;58.99;97608.63;5022858;28;20523;-63
2023/09/23 07:56:12;;;;;;;1.23;0.90;;;12.70;85.00;;;14.21;58.84;97611.94;5023112;28;20041;-62
2023/09/23 07:58:40;;;;;;;1.73;1.30;;;12.70;84.80;;;14.22;58.98;97619.78;4987580;28;20045;-62
2023/09/23 08:01:08;;;;;;;1.48;1.20;;;12.70;84.70;;;14.21;58.91;97622.66;5019976;28;20042;-63
2023/09/23 08:03:35;;;;;;;1.00;0.90;;;12.70;84.50;;;14.23;58.85;97625.97;5021033;28;20046;-62
2023/09/23 08:06:03;;;;;;;1.45;1.15;;;12.80;84.30;;;14.26;58.88;97630.97;5005475;28;20041;-63
2023/09/23 08:08:31;;;;;;;1.67;0.90;;;12.80;83.10;;;14.28;58.83;97635.09;5022210;28;20052;-62
2023/09/23 08:10:59;;;;;;;1.50;1.10;;;12.90;83.10;;;14.37;58.67;97633.19;5019825;28;20046;-61
2023/09/23 08:13:26;;;;;;;3.13;1.10;;;13.00;83.30;;;14.44;58.60;97630.56;5019953;28;20425;-61
2023/09/23 08:15:58;;;;;;;3.65;1.17;;;13.10;83.00;;;14.53;58.43;97641.00;5022609;28;20049;-62
2023/09/23 08:18:26;;;;;;;1.42;1.20;;;13.10;82.50;;;14.62;58.36;97648.97;5005585;28;20053;-63
2023/09/23 08:21:00;;;;;;;1.20;1.00;;;13.30;82.40;;;14.70;58.36;97644.34;5019527;28;20517;-63
2023/09/23 08:23:27;;;;;;;1.30;0.90;;;13.40;81.70;;;14.74;57.89;97655.53;5019684;28;20046;-62
2023/09/23 08:25:56;;;;;;;2.25;1.00;;;13.40;80.40;;;14.82;57.79;97659.94;5022733;28;20053;-61
2023/09/23 08:28:24;;;;;;;1.42;1.00;;;13.50;80.70;;;14.84;57.63;97656.06;5022460;28;20053;-62
2023/09/23 08:30:54;;;;;;;1.52;0.98;;;13.60;78.60;;;14.85;57.09;97654.19;5019322;28;20053;-62
2023/09/23 08:33:22;;;;;;;1.27;1.00;;;13.50;79.00;;;14.91;57.38;97662.34;5019667;28;20493;-62
2023/09/23 08:35:51;;;;;;;3.22;1.27;;;13.60;79.20;;;14.95;56.91;97670.84;5022042;28;20041;-61
2023/09/23 08:38:18;;;;;;;1.13;0.95;;;13.60;77.10;;;15.01;56.94;97671.94;5005170;28;20398;-62
2023/09/23 08:40:46;;;;;;;2.63;1.20;;;13.70;78.30;;;15.05;56.97;97676.72;5020244;28;20424;-62
2023/09/23 08:43:18;;;;;;;3.17;1.05;;;13.80;78.10;;;15.11;56.81;97681.31;5001764;28;20500;-61
2023/09/23 08:45:46;;;;;;;1.27;0.95;;;13.80;77.40;;;15.16;56.75;97680.75;5003916;28;20046;-61
2023/09/23 08:48:16;;;;;;;2.85;1.27;;;13.90;77.20;;;15.21;56.44;97685.56;5020594;28;20056;-62
2023/09/23 08:50:51;;;;;;;2.65;1.13;;;14.00;76.70;;;15.23;56.27;97673.59;4986555;28;20049;-61
2023/09/23 08:53:21;;;;;;;1.27;0.93;;;14.00;77.00;;;15.19;55.62;97679.56;5002705;28;20045;-61
2023/09/23 08:55:51;;;;;;;1.88;1.05;;;14.00;75.00;;;15.28;55.80;97671.19;5021408;28;20060;-63
2023/09/23 08:58:18;;;;;;;1.60;0.98;;;14.10;75.30;;;15.36;56.01;97670.25;5022377;28;20064;-62
2023/09/23 09:00:46;;;;;;;1.52;0.93;;;14.20;75.70;;;15.44;55.88;97674.66;5019972;28;20045;-62
2023/09/23 09:03:14;;;;;;;2.13;1.20;;;14.20;74.70;;;15.52;55.59;97671.84;5019044;28;20046;-62
2023/09/23 09:05:43;;;;;;;1.55;1.05;;;14.30;72.50;;;15.47;54.38;97677.78;5002294;28;20054;-63
2023/09/23 09:08:12;;;;;;;0.80;0.80;;;14.30;71.00;;;15.50;54.15;97681.94;5024954;28;20049;-62
2023/09/23 09:10:41;;;;;;;2.28;1.10;;;14.30;69.70;;;15.49;53.39;97677.56;5024937;28;20519;-62
2023/09/23 09:13:08;;;;;;;2.15;0.90;;;14.30;67.70;;;15.50;53.19;97679.25;5022991;28;20053;-62
2023/09/23 09:15:39;;;;;;;4.18;1.35;;;14.40;69.00;;;15.60;52.43;97682.44;5005692;28;20049;-63
2023/09/23 09:18:07;;;;;;;2.05;1.23;;;14.40;67.40;;;15.57;52.48;97674.78;5008892;28;20042;-62
2023/09/23 09:20:37;;;;;;;1.13;0.85;;;14.50;68.40;;;15.70;52.81;97687.47;5025936;28;20049;-63
2023/09/23 09:23:05;;;;;;;1.98;1.00;;;14.60;67.90;;;15.74;52.37;97681.56;5005300;28;20057;-62
2023/09/23 09:25:32;;;;;;;2.40;0.95;;;14.60;64.80;;;15.74;52.33;97683.41;4990060;28;20069;-63
2023/09/23 09:28:00;;;;;;;1.52;1.10;;;14.70;68.10;;;15.78;52.26;97679.34;5022601;28;20198;-63
2023/09/23 09:30:28;;;;;;;1.92;1.27;;;14.70;67.10;;;15.91;52.01;97682.09;5022660;28;20052;-63
2023/09/23 09:33:01;;;;;;;1.73;1.00;;;14.80;67.10;;;15.97;51.99;97683.19;5025638;28;20053;-63
2023/09/23 09:35:31;;;;;;;1.90;1.02;;;14.80;66.40;;;15.95;51.68;97690.59;4992376;28;20064;-63
2023/09/23 09:38:05;;;;;;;3.53;1.00;;;14.90;66.40;;;15.98;50.44;97682.19;5008775;28;20049;-63
2023/09/23 09:40:45;;;;;;;2.22;1.10;;;15.00;63.10;;;16.11;50.82;97676.06;4993918;28;20056;-63
2023/09/23 09:43:14;;;;;;;2.13;0.90;;;15.10;65.50;;;16.14;50.75;97681.88;5005244;28;20041;-63
2023/09/23 09:45:44;;;;;;;1.80;1.02;;;15.30;64.00;;;16.21;50.67;97679.25;5005780;28;20401;-63
2023/09/23 09:48:14;;;;;;;1.88;0.90;;;15.40;63.80;;;16.39;50.67;97678.72;5025823;28;20355;-63
2023/09/23 09:50:45;;;;;;;1.63;1.00;;;15.50;63.30;;;16.45;50.58;97677.94;4991256;28;20068;-63
2023/09/23 09:53:13;;;;;;;1.50;0.98;;;15.60;64.30;;;16.62;50.40;97680.31;5005031;28;20497;-63
2023/09/23 09:55:41;;;;;;;3.70;1.20;;;15.70;64.30;;;16.58;50.33;97684.44;5022658;28;20042;-63
2023/09/23 09:58:09;;;;;;;1.85;1.17;;;15.80;64.30;;;16.58;49.88;97687.13;5024303;28;20420;-64
2023/09/23 10:00:43;;;;;;;2.70;0.93;;;15.80;62.80;;;16.77;49.43;97683.72;5025340;28;20056;-64
2023/09/23 10:03:13;;;;;;;3.10;1.50;;;16.00;60.60;;;16.91;49.35;97687.31;5005034;28;20045;-63
2023/09/23 10:05:47;;;;;;;5.30;1.40;;;16.10;61.70;;;16.99;48.71;97689.00;5022421;28;20033;-64
2023/09/23 10:08:24;;;;;;;1.58;0.90;;;16.10;60.50;;;16.99;48.47;97684.44;5008355;28;20042;-64
2023/09/23 10:11:04;;;;;;;3.13;1.33;;;16.00;60.00;;;17.00;48.03;97685.25;5023078;28;20046;-63
2023/09/23 10:13:33;;;;;;;3.95;1.98;;;16.00;59.40;;;16.97;47.02;97686.50;5005059;28;20065;-63
2023/09/23 10:16:12;;;;;;;2.83;1.38;;;16.00;57.20;;;16.96;47.32;97682.13;5024911;28;20046;-64
2023/09/23 10:18:41;;;;;;;1.85;1.10;;;16.00;58.50;;;17.08;47.44;97693.19;5007316;28;20045;-63
2023/09/23 10:21:25;;;;;;;1.60;1.08;;;16.00;56.70;;;17.13;47.17;97691.50;5004519;28;20405;-63
2023/09/23 10:23:56;;;;;;;;;;;16.00;57.10;;;17.13;46.91;97694.19;5024060;28;20428;-63
2023/09/23 10:26:28;;;;;;;2.67;1.10;;;16.10;57.80;;;17.23;46.55;97693.00;5007922;28;20000;-63
2023/09/23 10:28:58;;;;;;;4.82;1.30;;;16.10;57.90;;;17.35;46.19;97706.69;5021616;28;20041;-63